Kuwait City, Kuwait

2:57 PM AST on December 05, 2016 (GMT +0300)
Kuwait International | | Change Station

Elev 180 ft 29.22 °N, 47.98 °E | Updated -153 second ago

Clear
Clear
70 °F
Feels Like 70 °F
N
7
Wind Variable Wind from North

Today
High -- | Low -- °F
--% Chance of Precip.
Yesterday
High -- | Low -- °F
Precip. -- in
Pressure 30.09 in
Visibility 5.0 miles
Clouds
Dew Point 41 °F
Humidity 35%
Rainfall 0.00 in
Snow Depth Not available.
6:27 AM 4:49 PM
Waxing Crescent, 31% visible
METAR OKBK 051200Z 35006KT 8000 NSC 21/05 Q1019 NOSIG
Pressure 30.09 in
Visibility 5.0 miles
Clouds
Dew Point 41 °F
Humidity 35%
Rainfall 0.00 in
Snow Depth Not available.
6:27 AM 4:49 PM
Waxing Crescent, 31% visible
METAR OKBK 051200Z 35006KT 8000 NSC 21/05 Q1019 NOSIG

10-Day Weather Forecast

No radar image for this location.
×

Almanac

Astronomy

Dec. 05, 2016 Rise Set
Actual Time
Civil Twilight
Nautical Twilight
Astronomical Twilight
Moon
Length of Visible Light
Length of Day
Tomorrow will be .
, % of the Moon is Illuminated

Today's Extremes

Country Highs Country Lows

Community

WunderPhotos

Upload Photos

1,955,777 photos uploaded!

WunderBlog® & News

Nearby

Air Quality

  Air Quality AQ Index Pollutant
Not available.

Snow Depth

Station Depth Elevation

Earthquake Activity

City Distance Mag. Time & Date
Minimum magnitude displayed is 2.5.

Coastal Water Temperatures

Place Temperature

Stations

Nearby Weather Stations

Station Location Temp. Windchill Dew Point Humidity Wind Precip. Elev Updated Type